sensor_id;sensor_type;location;lat;lon;timestamp;P1;durP1;ratioP1;P2;durP2;ratioP2
3159;SDS011;1591;51.486;7.146;2022-11-14T00:00:55;9.40;;;6.50;;
3159;SDS011;1591;51.486;7.146;2022-11-14T00:03:23;7.70;;;6.70;;
3159;SDS011;1591;51.486;7.146;2022-11-14T00:05:51;6.60;;;5.90;;
3159;SDS011;1591;51.486;7.146;2022-11-14T00:08:18;7.50;;;6.40;;
3159;SDS011;1591;51.486;7.146;2022-11-14T00:10:50;6.80;;;6.00;;
3159;SDS011;1591;51.486;7.146;2022-11-14T00:13:19;7.63;;;6.80;;
3159;SDS011;1591;51.486;7.146;2022-11-14T00:15:47;8.23;;;6.00;;
3159;SDS011;1591;51.486;7.146;2022-11-14T00:18:18;7.60;;;6.27;;
3159;SDS011;1591;51.486;7.146;2022-11-14T00:20:46;7.60;;;6.70;;
3159;SDS011;1591;51.486;7.146;2022-11-14T00:23:14;7.30;;;6.57;;
3159;SDS011;1591;51.486;7.146;2022-11-14T00:25:44;7.67;;;6.87;;
3159;SDS011;1591;51.486;7.146;2022-11-14T00:28:13;9.13;;;7.23;;
3159;SDS011;1591;51.486;7.146;2022-11-14T00:30:41;8.80;;;7.27;;
3159;SDS011;1591;51.486;7.146;2022-11-14T00:33:12;8.33;;;6.50;;
3159;SDS011;1591;51.486;7.146;2022-11-14T00:35:39;7.20;;;6.30;;
3159;SDS011;1591;51.486;7.146;2022-11-14T00:38:06;10.40;;;6.53;;
3159;SDS011;1591;51.486;7.146;2022-11-14T00:40:33;9.37;;;6.07;;
3159;SDS011;1591;51.486;7.146;2022-11-14T00:43:00;7.50;;;6.70;;
3159;SDS011;1591;51.486;7.146;2022-11-14T00:45:28;8.80;;;6.83;;
3159;SDS011;1591;51.486;7.146;2022-11-14T00:47:55;7.17;;;6.47;;
3159;SDS011;1591;51.486;7.146;2022-11-14T00:50:22;8.80;;;7.30;;
3159;SDS011;1591;51.486;7.146;2022-11-14T00:52:49;8.13;;;6.80;;
3159;SDS011;1591;51.486;7.146;2022-11-14T00:55:16;9.57;;;7.57;;
3159;SDS011;1591;51.486;7.146;2022-11-14T00:57:45;8.40;;;6.80;;
3159;SDS011;1591;51.486;7.146;2022-11-14T01:00:13;7.87;;;6.60;;
3159;SDS011;1591;51.486;7.146;2022-11-14T01:02:42;7.60;;;6.60;;
3159;SDS011;1591;51.486;7.146;2022-11-14T01:05:09;8.83;;;6.80;;
3159;SDS011;1591;51.486;7.146;2022-11-14T01:07:36;7.63;;;6.80;;
3159;SDS011;1591;51.486;7.146;2022-11-14T01:10:04;7.90;;;6.60;;
3159;SDS011;1591;51.486;7.146;2022-11-14T01:12:33;7.13;;;6.43;;
3159;SDS011;1591;51.486;7.146;2022-11-14T01:15:00;10.50;;;7.10;;
3159;SDS011;1591;51.486;7.146;2022-11-14T01:17:29;8.90;;;6.57;;
3159;SDS011;1591;51.486;7.146;2022-11-14T01:19:58;10.33;;;7.20;;
3159;SDS011;1591;51.486;7.146;2022-11-14T01:22:25;8.30;;;6.87;;
3159;SDS011;1591;51.486;7.146;2022-11-14T01:24:56;8.73;;;6.37;;
3159;SDS011;1591;51.486;7.146;2022-11-14T01:27:24;7.57;;;6.43;;
3159;SDS011;1591;51.486;7.146;2022-11-14T01:29:51;10.80;;;6.93;;
3159;SDS011;1591;51.486;7.146;2022-11-14T01:32:18;8.90;;;7.47;;
3159;SDS011;1591;51.486;7.146;2022-11-14T01:34:45;8.03;;;6.87;;
3159;SDS011;1591;51.486;7.146;2022-11-14T01:37:14;9.40;;;6.57;;
3159;SDS011;1591;51.486;7.146;2022-11-14T01:39:41;7.73;;;6.57;;
3159;SDS011;1591;51.486;7.146;2022-11-14T01:42:09;6.90;;;6.20;;
3159;SDS011;1591;51.486;7.146;2022-11-14T01:44:45;9.70;;;7.17;;
3159;SDS011;1591;51.486;7.146;2022-11-14T01:47:15;9.13;;;6.77;;
3159;SDS011;1591;51.486;7.146;2022-11-14T01:49:47;7.07;;;6.43;;
3159;SDS011;1591;51.486;7.146;2022-11-14T01:52:19;10.83;;;6.73;;
3159;SDS011;1591;51.486;7.146;2022-11-14T01:54:50;8.57;;;6.70;;
3159;SDS011;1591;51.486;7.146;2022-11-14T01:57:20;7.47;;;6.67;;
3159;SDS011;1591;51.486;7.146;2022-11-14T01:59:55;8.50;;;6.70;;
3159;SDS011;1591;51.486;7.146;2022-11-14T02:02:26;8.27;;;6.43;;
3159;SDS011;1591;51.486;7.146;2022-11-14T02:04:55;10.40;;;7.43;;
3159;SDS011;1591;51.486;7.146;2022-11-14T02:07:28;8.87;;;7.00;;
3159;SDS011;1591;51.486;7.146;2022-11-14T02:10:04;9.43;;;6.87;;
3159;SDS011;1591;51.486;7.146;2022-11-14T02:12:40;7.43;;;6.53;;
3159;SDS011;1591;51.486;7.146;2022-11-14T02:15:07;10.73;;;6.93;;
3159;SDS011;1591;51.486;7.146;2022-11-14T02:17:36;7.13;;;6.43;;
3159;SDS011;1591;51.486;7.146;2022-11-14T02:20:15;9.90;;;7.17;;
3159;SDS011;1591;51.486;7.146;2022-11-14T02:22:45;6.93;;;6.30;;
3159;SDS011;1591;51.486;7.146;2022-11-14T02:25:12;8.53;;;7.57;;
3159;SDS011;1591;51.486;7.146;2022-11-14T02:27:43;10.87;;;7.10;;
3159;SDS011;1591;51.486;7.146;2022-11-14T02:30:17;8.93;;;6.13;;
3159;SDS011;1591;51.486;7.146;2022-11-14T02:35:51;9.47;;;6.60;;
3159;SDS011;1591;51.486;7.146;2022-11-14T02:38:18;8.97;;;7.10;;
3159;SDS011;1591;51.486;7.146;2022-11-14T02:40:46;9.33;;;7.07;;
3159;SDS011;1591;51.486;7.146;2022-11-14T02:43:13;8.27;;;6.60;;
3159;SDS011;1591;51.486;7.146;2022-11-14T02:45:41;8.73;;;7.63;;
3159;SDS011;1591;51.486;7.146;2022-11-14T02:48:08;8.63;;;7.43;;
3159;SDS011;1591;51.486;7.146;2022-11-14T02:50:36;7.53;;;6.70;;
3159;SDS011;1591;51.486;7.146;2022-11-14T02:53:05;11.23;;;7.27;;
3159;SDS011;1591;51.486;7.146;2022-11-14T02:55:32;8.43;;;7.03;;
3159;SDS011;1591;51.486;7.146;2022-11-14T02:58:00;8.90;;;7.20;;
3159;SDS011;1591;51.486;7.146;2022-11-14T03:00:28;9.50;;;7.10;;
3159;SDS011;1591;51.486;7.146;2022-11-14T03:02:55;9.97;;;7.27;;
3159;SDS011;1591;51.486;7.146;2022-11-14T03:05:22;9.70;;;8.03;;
3159;SDS011;1591;51.486;7.146;2022-11-14T03:07:51;9.23;;;7.67;;
3159;SDS011;1591;51.486;7.146;2022-11-14T03:10:20;8.50;;;7.13;;
3159;SDS011;1591;51.486;7.146;2022-11-14T03:12:51;8.93;;;7.50;;
3159;SDS011;1591;51.486;7.146;2022-11-14T03:15:19;9.50;;;7.93;;
3159;SDS011;1591;51.486;7.146;2022-11-14T03:17:47;7.60;;;6.63;;
3159;SDS011;1591;51.486;7.146;2022-11-14T03:20:16;11.40;;;7.20;;
3159;SDS011;1591;51.486;7.146;2022-11-14T03:22:45;10.87;;;7.30;;
3159;SDS011;1591;51.486;7.146;2022-11-14T03:25:12;7.70;;;6.90;;
3159;SDS011;1591;51.486;7.146;2022-11-14T03:27:46;8.63;;;7.53;;
3159;SDS011;1591;51.486;7.146;2022-11-14T03:30:14;7.93;;;6.87;;
3159;SDS011;1591;51.486;7.146;2022-11-14T03:32:47;9.70;;;7.43;;
3159;SDS011;1591;51.486;7.146;2022-11-14T03:35:15;8.87;;;7.90;;
3159;SDS011;1591;51.486;7.146;2022-11-14T03:37:44;11.00;;;8.17;;
3159;SDS011;1591;51.486;7.146;2022-11-14T03:40:15;9.70;;;7.47;;
3159;SDS011;1591;51.486;7.146;2022-11-14T03:42:44;9.37;;;7.47;;
3159;SDS011;1591;51.486;7.146;2022-11-14T03:45:12;9.43;;;7.80;;
3159;SDS011;1591;51.486;7.146;2022-11-14T03:47:40;9.07;;;7.77;;
3159;SDS011;1591;51.486;7.146;2022-11-14T03:50:07;9.60;;;7.80;;
3159;SDS011;1591;51.486;7.146;2022-11-14T03:52:36;11.13;;;8.37;;
3159;SDS011;1591;51.486;7.146;2022-11-14T03:55:06;8.13;;;7.33;;
3159;SDS011;1591;51.486;7.146;2022-11-14T03:57:34;7.93;;;7.13;;
3159;SDS011;1591;51.486;7.146;2022-11-14T04:00:04;11.27;;;8.20;;
3159;SDS011;1591;51.486;7.146;2022-11-14T04:02:32;10.87;;;8.53;;
3159;SDS011;1591;51.486;7.146;2022-11-14T04:05:00;10.60;;;7.80;;
3159;SDS011;1591;51.486;7.146;2022-11-14T04:07:27;10.80;;;8.10;;
3159;SDS011;1591;51.486;7.146;2022-11-14T04:09:54;12.60;;;8.40;;
3159;SDS011;1591;51.486;7.146;2022-11-14T04:12:22;12.23;;;8.47;;
3159;SDS011;1591;51.486;7.146;2022-11-14T04:14:50;9.57;;;8.20;;
3159;SDS011;1591;51.486;7.146;2022-11-14T04:17:20;12.23;;;8.50;;
3159;SDS011;1591;51.486;7.146;2022-11-14T04:19:48;10.13;;;7.60;;
3159;SDS011;1591;51.486;7.146;2022-11-14T04:22:15;11.57;;;8.80;;
3159;SDS011;1591;51.486;7.146;2022-11-14T04:24:43;9.27;;;8.30;;
3159;SDS011;1591;51.486;7.146;2022-11-14T04:27:10;11.77;;;8.97;;
3159;SDS011;1591;51.486;7.146;2022-11-14T04:29:37;12.80;;;8.43;;
3159;SDS011;1591;51.486;7.146;2022-11-14T04:32:05;9.30;;;7.97;;
3159;SDS011;1591;51.486;7.146;2022-11-14T04:34:39;13.37;;;8.90;;
3159;SDS011;1591;51.486;7.146;2022-11-14T04:37:09;9.67;;;8.13;;
3159;SDS011;1591;51.486;7.146;2022-11-14T04:39:36;10.90;;;8.63;;
3159;SDS011;1591;51.486;7.146;2022-11-14T04:42:04;9.90;;;8.20;;
3159;SDS011;1591;51.486;7.146;2022-11-14T04:44:31;10.87;;;8.30;;
3159;SDS011;1591;51.486;7.146;2022-11-14T04:46:58;11.77;;;8.63;;
3159;SDS011;1591;51.486;7.146;2022-11-14T04:49:26;11.13;;;8.07;;
3159;SDS011;1591;51.486;7.146;2022-11-14T04:51:54;16.83;;;8.60;;
3159;SDS011;1591;51.486;7.146;2022-11-14T04:54:22;13.10;;;8.73;;
3159;SDS011;1591;51.486;7.146;2022-11-14T04:56:49;12.67;;;8.10;;
3159;SDS011;1591;51.486;7.146;2022-11-14T04:59:17;11.23;;;8.73;;
3159;SDS011;1591;51.486;7.146;2022-11-14T05:01:45;10.50;;;8.27;;
3159;SDS011;1591;51.486;7.146;2022-11-14T05:04:13;12.37;;;9.53;;
3159;SDS011;1591;51.486;7.146;2022-11-14T05:06:41;12.90;;;9.30;;
3159;SDS011;1591;51.486;7.146;2022-11-14T05:09:09;10.33;;;8.40;;
3159;SDS011;1591;51.486;7.146;2022-11-14T05:11:37;12.60;;;9.57;;
3159;SDS011;1591;51.486;7.146;2022-11-14T05:14:04;11.63;;;8.93;;
3159;SDS011;1591;51.486;7.146;2022-11-14T05:16:34;10.60;;;8.70;;
3159;SDS011;1591;51.486;7.146;2022-11-14T05:19:02;12.20;;;9.00;;
3159;SDS011;1591;51.486;7.146;2022-11-14T05:21:30;13.90;;;8.70;;
3159;SDS011;1591;51.486;7.146;2022-11-14T05:23:58;13.07;;;9.63;;
3159;SDS011;1591;51.486;7.146;2022-11-14T05:26:27;11.83;;;8.93;;
3159;SDS011;1591;51.486;7.146;2022-11-14T05:28:54;15.90;;;9.27;;
3159;SDS011;1591;51.486;7.146;2022-11-14T05:31:22;14.97;;;9.67;;
3159;SDS011;1591;51.486;7.146;2022-11-14T05:33:49;18.23;;;10.57;;
3159;SDS011;1591;51.486;7.146;2022-11-14T05:36:16;23.70;;;10.97;;
3159;SDS011;1591;51.486;7.146;2022-11-14T05:38:43;19.30;;;10.90;;
3159;SDS011;1591;51.486;7.146;2022-11-14T05:41:11;15.97;;;10.77;;
3159;SDS011;1591;51.486;7.146;2022-11-14T05:43:42;16.47;;;10.53;;
3159;SDS011;1591;51.486;7.146;2022-11-14T05:46:11;13.47;;;10.00;;
3159;SDS011;1591;51.486;7.146;2022-11-14T05:48:40;12.60;;;9.70;;
3159;SDS011;1591;51.486;7.146;2022-11-14T05:51:09;15.57;;;10.30;;
3159;SDS011;1591;51.486;7.146;2022-11-14T05:53:38;14.43;;;10.00;;
3159;SDS011;1591;51.486;7.146;2022-11-14T05:56:07;13.33;;;10.93;;
3159;SDS011;1591;51.486;7.146;2022-11-14T05:58:39;16.03;;;11.30;;
3159;SDS011;1591;51.486;7.146;2022-11-14T06:01:08;15.07;;;10.73;;
3159;SDS011;1591;51.486;7.146;2022-11-14T06:03:38;12.93;;;10.30;;
3159;SDS011;1591;51.486;7.146;2022-11-14T06:06:10;17.00;;;11.03;;
3159;SDS011;1591;51.486;7.146;2022-11-14T06:08:44;15.60;;;10.73;;
3159;SDS011;1591;51.486;7.146;2022-11-14T06:11:12;14.57;;;11.10;;
3159;SDS011;1591;51.486;7.146;2022-11-14T06:13:45;17.03;;;11.03;;
3159;SDS011;1591;51.486;7.146;2022-11-14T06:16:14;12.87;;;10.80;;
3159;SDS011;1591;51.486;7.146;2022-11-14T06:18:44;13.20;;;10.20;;
3159;SDS011;1591;51.486;7.146;2022-11-14T06:21:12;16.97;;;11.57;;
3159;SDS011;1591;51.486;7.146;2022-11-14T06:23:42;25.00;;;20.87;;
3159;SDS011;1591;51.486;7.146;2022-11-14T06:26:13;21.70;;;18.67;;
3159;SDS011;1591;51.486;7.146;2022-11-14T06:28:47;20.30;;;17.60;;
3159;SDS011;1591;51.486;7.146;2022-11-14T06:31:15;15.80;;;13.50;;
3159;SDS011;1591;51.486;7.146;2022-11-14T06:33:43;15.87;;;11.20;;
3159;SDS011;1591;51.486;7.146;2022-11-14T06:36:11;19.37;;;10.97;;
3159;SDS011;1591;51.486;7.146;2022-11-14T06:38:39;13.37;;;10.63;;
3159;SDS011;1591;51.486;7.146;2022-11-14T06:41:09;15.80;;;10.17;;
3159;SDS011;1591;51.486;7.146;2022-11-14T06:43:40;14.33;;;10.10;;
3159;SDS011;1591;51.486;7.146;2022-11-14T06:46:11;12.63;;;10.03;;
3159;SDS011;1591;51.486;7.146;2022-11-14T06:48:41;8.43;;;7.47;;
3159;SDS011;1591;51.486;7.146;2022-11-14T06:51:12;11.27;;;8.70;;
3159;SDS011;1591;51.486;7.146;2022-11-14T06:53:41;14.40;;;8.13;;
3159;SDS011;1591;51.486;7.146;2022-11-14T06:56:09;10.20;;;7.33;;
3159;SDS011;1591;51.486;7.146;2022-11-14T06:58:39;11.30;;;7.70;;
3159;SDS011;1591;51.486;7.146;2022-11-14T07:01:11;11.20;;;7.97;;
3159;SDS011;1591;51.486;7.146;2022-11-14T07:03:41;11.60;;;9.43;;
3159;SDS011;1591;51.486;7.146;2022-11-14T07:06:10;11.90;;;9.40;;
3159;SDS011;1591;51.486;7.146;2022-11-14T07:08:40;11.20;;;8.93;;
3159;SDS011;1591;51.486;7.146;2022-11-14T07:11:08;10.10;;;8.80;;
3159;SDS011;1591;51.486;7.146;2022-11-14T07:13:46;10.60;;;8.50;;
3159;SDS011;1591;51.486;7.146;2022-11-14T07:16:15;9.40;;;7.70;;
3159;SDS011;1591;51.486;7.146;2022-11-14T07:18:43;12.70;;;8.20;;
3159;SDS011;1591;51.486;7.146;2022-11-14T07:21:10;11.20;;;8.00;;
3159;SDS011;1591;51.486;7.146;2022-11-14T07:23:40;11.47;;;8.87;;
3159;SDS011;1591;51.486;7.146;2022-11-14T07:26:08;8.97;;;7.70;;
3159;SDS011;1591;51.486;7.146;2022-11-14T07:28:38;8.90;;;7.80;;
3159;SDS011;1591;51.486;7.146;2022-11-14T07:31:06;10.53;;;7.70;;
3159;SDS011;1591;51.486;7.146;2022-11-14T07:33:38;9.33;;;7.90;;
3159;SDS011;1591;51.486;7.146;2022-11-14T07:36:06;11.07;;;7.67;;
3159;SDS011;1591;51.486;7.146;2022-11-14T07:38:34;11.00;;;8.33;;
3159;SDS011;1591;51.486;7.146;2022-11-14T07:41:02;13.50;;;9.40;;
3159;SDS011;1591;51.486;7.146;2022-11-14T07:43:32;9.70;;;8.60;;
3159;SDS011;1591;51.486;7.146;2022-11-14T07:45:59;11.23;;;8.07;;
3159;SDS011;1591;51.486;7.146;2022-11-14T07:48:27;9.30;;;8.00;;
3159;SDS011;1591;51.486;7.146;2022-11-14T07:50:58;10.40;;;7.40;;
3159;SDS011;1591;51.486;7.146;2022-11-14T07:53:25;10.57;;;8.10;;
3159;SDS011;1591;51.486;7.146;2022-11-14T07:55:53;12.53;;;8.40;;
3159;SDS011;1591;51.486;7.146;2022-11-14T07:58:21;10.60;;;8.40;;
3159;SDS011;1591;51.486;7.146;2022-11-14T08:00:48;10.00;;;8.60;;
3159;SDS011;1591;51.486;7.146;2022-11-14T08:03:16;9.60;;;8.30;;
3159;SDS011;1591;51.486;7.146;2022-11-14T08:05:43;12.30;;;8.90;;
3159;SDS011;1591;51.486;7.146;2022-11-14T08:08:13;12.10;;;8.23;;
3159;SDS011;1591;51.486;7.146;2022-11-14T08:10:40;10.37;;;8.10;;
3159;SDS011;1591;51.486;7.146;2022-11-14T08:13:09;10.97;;;8.30;;
3159;SDS011;1591;51.486;7.146;2022-11-14T08:15:36;10.80;;;8.70;;
3159;SDS011;1591;51.486;7.146;2022-11-14T08:18:03;10.50;;;8.50;;
3159;SDS011;1591;51.486;7.146;2022-11-14T08:20:31;10.00;;;8.50;;
3159;SDS011;1591;51.486;7.146;2022-11-14T08:23:01;13.20;;;9.17;;
3159;SDS011;1591;51.486;7.146;2022-11-14T08:25:30;10.37;;;8.23;;
3159;SDS011;1591;51.486;7.146;2022-11-14T08:27:57;11.47;;;8.97;;
3159;SDS011;1591;51.486;7.146;2022-11-14T08:30:24;11.50;;;8.97;;
3159;SDS011;1591;51.486;7.146;2022-11-14T08:32:51;12.63;;;9.17;;
3159;SDS011;1591;51.486;7.146;2022-11-14T08:35:19;9.80;;;8.73;;
3159;SDS011;1591;51.486;7.146;2022-11-14T08:37:47;9.60;;;8.00;;
3159;SDS011;1591;51.486;7.146;2022-11-14T08:40:14;11.80;;;8.60;;
3159;SDS011;1591;51.486;7.146;2022-11-14T08:42:43;14.73;;;9.00;;
3159;SDS011;1591;51.486;7.146;2022-11-14T08:45:10;12.50;;;8.83;;
3159;SDS011;1591;51.486;7.146;2022-11-14T08:47:37;12.50;;;9.47;;
3159;SDS011;1591;51.486;7.146;2022-11-14T08:50:04;11.20;;;8.80;;
3159;SDS011;1591;51.486;7.146;2022-11-14T08:52:32;11.53;;;9.23;;
3159;SDS011;1591;51.486;7.146;2022-11-14T08:54:59;15.70;;;8.93;;
3159;SDS011;1591;51.486;7.146;2022-11-14T08:57:26;14.80;;;9.90;;
3159;SDS011;1591;51.486;7.146;2022-11-14T08:59:54;12.83;;;9.17;;
3159;SDS011;1591;51.486;7.146;2022-11-14T09:02:21;14.63;;;9.10;;
3159;SDS011;1591;51.486;7.146;2022-11-14T09:04:48;14.60;;;9.50;;
3159;SDS011;1591;51.486;7.146;2022-11-14T09:07:15;13.40;;;9.20;;
3159;SDS011;1591;51.486;7.146;2022-11-14T09:09:42;13.10;;;8.70;;
3159;SDS011;1591;51.486;7.146;2022-11-14T09:12:09;11.73;;;9.50;;
3159;SDS011;1591;51.486;7.146;2022-11-14T09:14:36;15.40;;;10.27;;
3159;SDS011;1591;51.486;7.146;2022-11-14T09:17:04;12.90;;;9.93;;
3159;SDS011;1591;51.486;7.146;2022-11-14T09:19:31;12.90;;;10.00;;
3159;SDS011;1591;51.486;7.146;2022-11-14T09:21:59;16.60;;;11.23;;
3159;SDS011;1591;51.486;7.146;2022-11-14T09:24:27;19.43;;;11.40;;
3159;SDS011;1591;51.486;7.146;2022-11-14T09:26:55;14.77;;;10.70;;
3159;SDS011;1591;51.486;7.146;2022-11-14T09:29:22;14.83;;;10.77;;
3159;SDS011;1591;51.486;7.146;2022-11-14T09:31:49;14.80;;;11.73;;
3159;SDS011;1591;51.486;7.146;2022-11-14T09:34:20;19.27;;;11.47;;
3159;SDS011;1591;51.486;7.146;2022-11-14T09:36:47;21.27;;;12.30;;
3159;SDS011;1591;51.486;7.146;2022-11-14T09:39:14;16.93;;;11.80;;
3159;SDS011;1591;51.486;7.146;2022-11-14T09:41:46;14.67;;;11.47;;
3159;SDS011;1591;51.486;7.146;2022-11-14T09:44:31;19.50;;;12.20;;
3159;SDS011;1591;51.486;7.146;2022-11-14T09:47:13;16.40;;;11.40;;
3159;SDS011;1591;51.486;7.146;2022-11-14T09:49:47;16.93;;;12.70;;
3159;SDS011;1591;51.486;7.146;2022-11-14T09:52:20;17.43;;;12.20;;
3159;SDS011;1591;51.486;7.146;2022-11-14T09:54:56;17.57;;;12.30;;
3159;SDS011;1591;51.486;7.146;2022-11-14T09:57:28;18.53;;;12.60;;
3159;SDS011;1591;51.486;7.146;2022-11-14T09:59:55;17.80;;;12.80;;
3159;SDS011;1591;51.486;7.146;2022-11-14T10:02:33;17.93;;;13.10;;
3159;SDS011;1591;51.486;7.146;2022-11-14T10:05:16;17.20;;;12.70;;
3159;SDS011;1591;51.486;7.146;2022-11-14T10:08:09;17.20;;;12.23;;
3159;SDS011;1591;51.486;7.146;2022-11-14T10:11:00;21.37;;;13.37;;
3159;SDS011;1591;51.486;7.146;2022-11-14T10:13:37;23.47;;;13.70;;
3159;SDS011;1591;51.486;7.146;2022-11-14T10:16:29;22.93;;;13.43;;
3159;SDS011;1591;51.486;7.146;2022-11-14T10:19:10;19.10;;;13.33;;
3159;SDS011;1591;51.486;7.146;2022-11-14T10:21:52;18.43;;;11.93;;
3159;SDS011;1591;51.486;7.146;2022-11-14T10:24:44;16.73;;;12.13;;
3159;SDS011;1591;51.486;7.146;2022-11-14T10:27:45;21.10;;;13.70;;
3159;SDS011;1591;51.486;7.146;2022-11-14T10:30:29;18.03;;;11.77;;
3159;SDS011;1591;51.486;7.146;2022-11-14T10:33:09;17.80;;;12.57;;
3159;SDS011;1591;51.486;7.146;2022-11-14T10:35:59;18.70;;;12.37;;
3159;SDS011;1591;51.486;7.146;2022-11-14T10:38:40;21.40;;;12.23;;
3159;SDS011;1591;51.486;7.146;2022-11-14T10:41:14;15.33;;;10.70;;
3159;SDS011;1591;51.486;7.146;2022-11-14T10:43:42;14.40;;;10.80;;
3159;SDS011;1591;51.486;7.146;2022-11-14T10:46:14;21.80;;;11.00;;
3159;SDS011;1591;51.486;7.146;2022-11-14T10:48:47;13.50;;;9.37;;
3159;SDS011;1591;51.486;7.146;2022-11-14T10:51:17;16.83;;;9.80;;
3159;SDS011;1591;51.486;7.146;2022-11-14T10:53:53;14.33;;;10.47;;
3159;SDS011;1591;51.486;7.146;2022-11-14T10:56:24;11.30;;;9.17;;
3159;SDS011;1591;51.486;7.146;2022-11-14T10:58:51;17.70;;;10.17;;
3159;SDS011;1591;51.486;7.146;2022-11-14T11:01:30;11.30;;;9.07;;
3159;SDS011;1591;51.486;7.146;2022-11-14T11:06:52;13.07;;;10.20;;
3159;SDS011;1591;51.486;7.146;2022-11-14T11:09:23;14.53;;;9.57;;
3159;SDS011;1591;51.486;7.146;2022-11-14T11:12:13;17.60;;;10.43;;
3159;SDS011;1591;51.486;7.146;2022-11-14T11:14:43;15.00;;;10.57;;
3159;SDS011;1591;51.486;7.146;2022-11-14T11:17:13;12.87;;;9.80;;
3159;SDS011;1591;51.486;7.146;2022-11-14T11:19:47;15.27;;;11.30;;
3159;SDS011;1591;51.486;7.146;2022-11-14T11:22:34;15.50;;;10.83;;
3159;SDS011;1591;51.486;7.146;2022-11-14T11:25:13;16.67;;;11.27;;
3159;SDS011;1591;51.486;7.146;2022-11-14T11:28:03;14.37;;;10.53;;
3159;SDS011;1591;51.486;7.146;2022-11-14T11:30:33;15.17;;;10.00;;
3159;SDS011;1591;51.486;7.146;2022-11-14T11:33:16;13.50;;;9.70;;
3159;SDS011;1591;51.486;7.146;2022-11-14T11:35:49;14.20;;;9.33;;
3159;SDS011;1591;51.486;7.146;2022-11-14T11:38:22;15.73;;;10.63;;
3159;SDS011;1591;51.486;7.146;2022-11-14T11:40:56;13.50;;;9.77;;
3159;SDS011;1591;51.486;7.146;2022-11-14T11:43:35;13.30;;;10.40;;
3159;SDS011;1591;51.486;7.146;2022-11-14T11:46:10;20.73;;;10.47;;
3159;SDS011;1591;51.486;7.146;2022-11-14T11:48:43;15.07;;;12.00;;
3159;SDS011;1591;51.486;7.146;2022-11-14T11:51:15;14.53;;;10.37;;
3159;SDS011;1591;51.486;7.146;2022-11-14T11:53:50;12.43;;;9.90;;
3159;SDS011;1591;51.486;7.146;2022-11-14T11:56:29;14.80;;;9.80;;
3159;SDS011;1591;51.486;7.146;2022-11-14T11:58:59;15.60;;;9.80;;
3159;SDS011;1591;51.486;7.146;2022-11-14T12:01:46;11.27;;;8.63;;
3159;SDS011;1591;51.486;7.146;2022-11-14T12:04:15;11.50;;;8.93;;
3159;SDS011;1591;51.486;7.146;2022-11-14T12:06:43;12.87;;;9.83;;
3159;SDS011;1591;51.486;7.146;2022-11-14T12:09:17;11.67;;;8.73;;
3159;SDS011;1591;51.486;7.146;2022-11-14T12:11:49;15.10;;;9.17;;
3159;SDS011;1591;51.486;7.146;2022-11-14T12:14:27;13.40;;;9.17;;
3159;SDS011;1591;51.486;7.146;2022-11-14T12:17:22;14.60;;;10.20;;
3159;SDS011;1591;51.486;7.146;2022-11-14T12:20:20;12.43;;;9.77;;
3159;SDS011;1591;51.486;7.146;2022-11-14T12:23:11;13.83;;;9.30;;
3159;SDS011;1591;51.486;7.146;2022-11-14T12:26:19;12.20;;;9.20;;
3159;SDS011;1591;51.486;7.146;2022-11-14T12:29:07;9.80;;;8.60;;
3159;SDS011;1591;51.486;7.146;2022-11-14T12:32:07;15.57;;;9.50;;
3159;SDS011;1591;51.486;7.146;2022-11-14T12:34:40;13.07;;;8.30;;
3159;SDS011;1591;51.486;7.146;2022-11-14T12:37:13;36.53;;;8.83;;
3159;SDS011;1591;51.486;7.146;2022-11-14T12:39:53;10.17;;;8.40;;
3159;SDS011;1591;51.486;7.146;2022-11-14T12:42:22;17.63;;;9.80;;
3159;SDS011;1591;51.486;7.146;2022-11-14T12:44:51;9.60;;;8.53;;
3159;SDS011;1591;51.486;7.146;2022-11-14T12:47:19;12.03;;;9.20;;
3159;SDS011;1591;51.486;7.146;2022-11-14T12:49:57;10.07;;;8.53;;
3159;SDS011;1591;51.486;7.146;2022-11-14T12:53:05;8.50;;;7.23;;
3159;SDS011;1591;51.486;7.146;2022-11-14T12:56:16;11.07;;;7.30;;
3159;SDS011;1591;51.486;7.146;2022-11-14T12:59:14;8.60;;;7.63;;
3159;SDS011;1591;51.486;7.146;2022-11-14T13:02:05;9.03;;;7.47;;
3159;SDS011;1591;51.486;7.146;2022-11-14T13:07:59;9.27;;;6.90;;
3159;SDS011;1591;51.486;7.146;2022-11-14T13:10:41;11.60;;;7.90;;
3159;SDS011;1591;51.486;7.146;2022-11-14T13:13:09;7.73;;;6.80;;
3159;SDS011;1591;51.486;7.146;2022-11-14T13:15:55;8.37;;;6.53;;
3159;SDS011;1591;51.486;7.146;2022-11-14T13:18:53;8.97;;;7.60;;
3159;SDS011;1591;51.486;7.146;2022-11-14T13:25:17;7.93;;;7.07;;
3159;SDS011;1591;51.486;7.146;2022-11-14T13:27:47;10.73;;;7.77;;
3159;SDS011;1591;51.486;7.146;2022-11-14T13:30:14;12.30;;;7.80;;
3159;SDS011;1591;51.486;7.146;2022-11-14T13:35:32;11.67;;;8.23;;
3159;SDS011;1591;51.486;7.146;2022-11-14T13:41:37;10.73;;;8.10;;
3159;SDS011;1591;51.486;7.146;2022-11-14T13:44:46;11.93;;;8.53;;
3159;SDS011;1591;51.486;7.146;2022-11-14T13:48:03;9.50;;;7.50;;
3159;SDS011;1591;51.486;7.146;2022-11-14T13:51:29;10.70;;;8.40;;
3159;SDS011;1591;51.486;7.146;2022-11-14T13:53:57;9.57;;;7.67;;
3159;SDS011;1591;51.486;7.146;2022-11-14T13:56:28;10.13;;;7.97;;
3159;SDS011;1591;51.486;7.146;2022-11-14T14:02:32;13.10;;;9.43;;
3159;SDS011;1591;51.486;7.146;2022-11-14T14:05:29;12.33;;;8.77;;
3159;SDS011;1591;51.486;7.146;2022-11-14T14:08:15;11.10;;;8.70;;
3159;SDS011;1591;51.486;7.146;2022-11-14T14:10:58;10.27;;;8.07;;
3159;SDS011;1591;51.486;7.146;2022-11-14T14:13:45;8.40;;;7.50;;
3159;SDS011;1591;51.486;7.146;2022-11-14T14:16:27;9.57;;;8.43;;
3159;SDS011;1591;51.486;7.146;2022-11-14T14:19:05;11.97;;;8.13;;
3159;SDS011;1591;51.486;7.146;2022-11-14T14:21:43;11.50;;;8.77;;
3159;SDS011;1591;51.486;7.146;2022-11-14T14:24:27;12.57;;;8.70;;
3159;SDS011;1591;51.486;7.146;2022-11-14T14:27:13;10.43;;;7.80;;
3159;SDS011;1591;51.486;7.146;2022-11-14T14:29:50;11.43;;;8.87;;
3159;SDS011;1591;51.486;7.146;2022-11-14T14:32:27;10.40;;;7.70;;
3159;SDS011;1591;51.486;7.146;2022-11-14T14:34:54;10.20;;;8.10;;
3159;SDS011;1591;51.486;7.146;2022-11-14T14:37:24;11.53;;;8.80;;
3159;SDS011;1591;51.486;7.146;2022-11-14T14:39:58;9.30;;;8.23;;
3159;SDS011;1591;51.486;7.146;2022-11-14T14:42:29;10.67;;;7.80;;
3159;SDS011;1591;51.486;7.146;2022-11-14T14:45:06;13.10;;;9.47;;
3159;SDS011;1591;51.486;7.146;2022-11-14T14:47:40;12.23;;;8.17;;
3159;SDS011;1591;51.486;7.146;2022-11-14T14:50:13;11.87;;;9.00;;
3159;SDS011;1591;51.486;7.146;2022-11-14T14:52:44;11.73;;;8.87;;
3159;SDS011;1591;51.486;7.146;2022-11-14T14:55:21;10.80;;;8.60;;
3159;SDS011;1591;51.486;7.146;2022-11-14T14:57:50;11.97;;;8.47;;
3159;SDS011;1591;51.486;7.146;2022-11-14T15:00:19;14.37;;;9.17;;
3159;SDS011;1591;51.486;7.146;2022-11-14T15:02:51;12.43;;;8.47;;
3159;SDS011;1591;51.486;7.146;2022-11-14T15:05:20;12.53;;;10.13;;
3159;SDS011;1591;51.486;7.146;2022-11-14T15:07:49;12.07;;;9.10;;
3159;SDS011;1591;51.486;7.146;2022-11-14T15:10:21;10.50;;;8.93;;
3159;SDS011;1591;51.486;7.146;2022-11-14T15:12:53;11.20;;;8.47;;
3159;SDS011;1591;51.486;7.146;2022-11-14T15:15:22;11.13;;;9.03;;
3159;SDS011;1591;51.486;7.146;2022-11-14T15:17:50;11.70;;;8.60;;
3159;SDS011;1591;51.486;7.146;2022-11-14T15:20:20;11.80;;;9.00;;
3159;SDS011;1591;51.486;7.146;2022-11-14T15:23:16;11.90;;;9.10;;
3159;SDS011;1591;51.486;7.146;2022-11-14T15:25:48;10.83;;;8.80;;
3159;SDS011;1591;51.486;7.146;2022-11-14T15:28:26;12.20;;;8.70;;
3159;SDS011;1591;51.486;7.146;2022-11-14T15:30:55;12.93;;;8.53;;
3159;SDS011;1591;51.486;7.146;2022-11-14T15:33:25;11.33;;;8.10;;
3159;SDS011;1591;51.486;7.146;2022-11-14T15:36:03;15.10;;;9.90;;
3159;SDS011;1591;51.486;7.146;2022-11-14T15:38:32;10.53;;;8.00;;
3159;SDS011;1591;51.486;7.146;2022-11-14T15:41:18;10.17;;;8.83;;
3159;SDS011;1591;51.486;7.146;2022-11-14T15:43:48;13.93;;;8.80;;
3159;SDS011;1591;51.486;7.146;2022-11-14T15:46:24;12.00;;;8.57;;
3159;SDS011;1591;51.486;7.146;2022-11-14T15:49:07;17.43;;;8.93;;
3159;SDS011;1591;51.486;7.146;2022-11-14T15:51:44;11.07;;;8.57;;
3159;SDS011;1591;51.486;7.146;2022-11-14T15:54:21;17.97;;;8.60;;
3159;SDS011;1591;51.486;7.146;2022-11-14T15:56:55;12.50;;;8.70;;